Time;durP1;ratioP1;P1;durP2;ratioP2;P2;SDS_P1;SDS_P2;PMS_P1;PMS_P2;Temp;Humidity;BMP_temperature;BMP_pressure;BME280_temperature;BME280_humidity;BME280_pressure;Samples;Min_cycle;Max_cycle;Signal;HPM_P1;HPM_P2
2021/05/22 00:01:49;;;;;;;8.27;0.95;;;;;;;11.38;79.67;99639.78;5112321;27;20042;-74
2021/05/22 00:04:14;;;;;;;7.68;1.15;;;;;;;11.39;78.97;99641.47;5117141;27;20073;-74
2021/05/22 00:06:41;;;;;;;4.25;0.80;;;;;;;11.42;78.92;99632.31;5130262;27;20640;-74
2021/05/22 00:09:06;;;;;;;2.80;0.68;;;;;;;11.35;78.91;99631.97;5140141;27;20038;-74
2021/05/22 00:11:34;;;;;;;4.57;0.80;;;;;;;11.32;78.90;99635.78;5136750;27;20043;-73
2021/05/22 00:14:00;;;;;;;3.35;0.85;;;;;;;11.35;78.01;99624.78;5113328;27;20411;-74
2021/05/22 00:16:26;;;;;;;2.45;0.82;;;;;;;11.31;77.21;99628.69;5127470;27;20037;-73
2021/05/22 00:18:51;;;;;;;3.25;0.70;;;;;;;11.30;77.26;99621.59;5123763;27;20030;-73
2021/05/22 00:21:16;;;;;;;6.40;0.80;;;;;;;11.34;75.44;99628.44;5108112;27;20445;-74
2021/05/22 00:23:42;;;;;;;2.50;0.60;;;;;;;11.31;75.16;99623.31;5139197;27;20039;-73
2021/05/22 00:26:07;;;;;;;7.13;0.98;;;;;;;11.34;73.29;99628.44;5120317;27;20034;-74
2021/05/22 00:28:33;;;;;;;6.93;0.90;;;;;;;11.43;72.77;99617.88;5130748;27;20024;-74
2021/05/22 00:30:58;;;;;;;3.88;0.60;;;;;;;11.48;71.41;99629.13;5114243;27;20372;-74
2021/05/22 00:33:24;;;;;;;5.50;1.13;;;;;;;11.47;70.93;99611.28;5113655;27;20062;-74
2021/05/22 00:35:50;;;;;;;3.90;0.70;;;;;;;11.42;70.57;99618.88;5134641;27;20411;-74
2021/05/22 00:38:15;;;;;;;5.05;0.90;;;;;;;11.40;71.02;99620.84;5129835;27;20046;-74
2021/05/22 00:40:41;;;;;;;7.22;0.68;;;;;;;11.38;70.76;99612.06;5118328;27;20027;-75
2021/05/22 00:43:06;;;;;;;5.03;0.50;;;;;;;11.44;70.62;99623.13;5116028;27;20023;-74
2021/05/22 00:45:33;;;;;;;4.35;0.60;;;;;;;11.35;71.10;99614.03;5106573;27;20035;-74
2021/05/22 00:47:58;;;;;;;2.08;0.50;;;;;;;11.29;71.29;99619.91;5112112;27;20039;-74
2021/05/22 00:50:33;;;;;;;5.85;0.70;;;;;;;11.34;72.93;99611.47;5114348;27;20070;-74
2021/05/22 00:53:00;;;;;;;4.78;0.57;;;;;;;11.31;72.43;99612.56;5106673;27;20039;-74
2021/05/22 00:55:26;;;;;;;2.72;0.68;;;;;;;11.23;73.24;99609.66;5132409;27;20106;-74
2021/05/22 00:57:52;;;;;;;6.97;0.70;;;;;;;11.17;74.29;99599.44;5113947;27;20474;-74
2021/05/22 01:00:28;;;;;;;6.03;0.82;;;;;;;11.22;74.00;99597.25;5099404;27;20035;-74
2021/05/22 01:02:53;;;;;;;3.97;0.63;;;;;;;11.14;74.02;99588.97;5131330;27;20043;-74
2021/05/22 01:05:18;;;;;;;7.85;0.95;;;;;;;11.13;75.05;99592.66;5116329;27;20039;-74
2021/05/22 01:07:47;;;;;;;6.75;0.60;;;;;;;11.03;75.13;99596.25;5115945;27;20038;-73
2021/05/22 01:10:14;;;;;;;2.35;1.00;;;;;;;10.95;75.48;99594.19;5133365;27;20031;-73
2021/05/22 01:12:46;;;;;;;3.22;0.60;;;;;;;11.09;74.90;99593.03;5106104;27;20480;-74
2021/05/22 01:15:17;;;;;;;2.35;1.05;;;;;;;11.00;75.53;99593.78;5115632;27;20115;-74
2021/05/22 01:17:46;;;;;;;5.65;0.75;;;;;;;10.90;76.53;99596.41;5121658;27;20039;-73
2021/05/22 01:20:33;;;;;;;3.50;0.60;;;;;;;10.95;76.31;99599.56;5126490;27;20031;-74
2021/05/22 01:23:03;;;;;;;5.72;0.80;;;;;;;10.86;76.70;99601.16;5107689;27;20055;-74
2021/05/22 01:25:33;;;;;;;4.35;1.10;;;;;;;10.92;76.63;99603.34;5115698;27;20034;-74
2021/05/22 01:28:01;;;;;;;7.03;0.75;;;;;;;10.86;77.44;99603.03;5112462;27;20031;-74
2021/05/22 01:30:27;;;;;;;11.18;1.20;;;;;;;10.91;76.64;99590.94;5129271;27;20679;-74
2021/05/22 01:32:53;;;;;;;5.63;0.80;;;;;;;10.84;77.82;99599.59;5108642;27;20035;-74
2021/05/22 01:35:19;;;;;;;5.60;0.80;;;;;;;10.85;77.18;99594.13;5128847;27;20029;-73
2021/05/22 01:37:45;;;;;;;4.07;0.93;;;;;;;10.82;78.19;99593.50;5128032;27;20027;-73
2021/05/22 01:40:11;;;;;;;7.40;0.82;;;;;;;10.76;77.59;99583.28;5136907;27;20527;-73
2021/05/22 01:42:38;;;;;;;2.55;1.08;;;;;;;10.78;77.50;99592.91;5118299;27;20031;-73
2021/05/22 01:45:09;;;;;;;3.97;0.70;;;;;;;10.83;77.32;99592.53;5114999;27;20043;-73
2021/05/22 01:47:35;;;;;;;5.97;1.15;;;;;;;10.79;78.24;99585.72;5128031;27;20027;-74
2021/05/22 01:50:04;;;;;;;4.20;0.60;;;;;;;10.77;78.55;99593.91;5109391;27;20049;-73
2021/05/22 01:52:33;;;;;;;5.43;1.27;;;;;;;10.70;78.19;99591.84;5122975;27;20030;-73
2021/05/22 01:55:00;;;;;;;5.85;1.40;;;;;;;10.72;78.47;99592.56;5120811;27;20218;-73
2021/05/22 01:57:25;;;;;;;4.60;0.82;;;;;;;10.64;78.28;99586.97;5127918;27;20062;-74
2021/05/22 01:59:51;;;;;;;6.68;0.88;;;;;;;10.76;78.21;99588.66;5119017;27;20646;-74
2021/05/22 02:02:20;;;;;;;1.95;0.73;;;;;;;10.59;78.93;99584.69;5120046;27;20081;-74
2021/05/22 02:04:48;;;;;;;6.40;1.00;;;;;;;10.70;78.78;99575.75;5110027;27;20045;-73
2021/05/22 02:07:20;;;;;;;3.53;0.93;;;;;;;10.63;78.15;99582.59;5109909;27;20546;-74
2021/05/22 02:09:48;;;;;;;16.13;1.58;;;;;;;10.62;78.84;99580.88;5131942;27;20048;-73
2021/05/22 02:12:13;;;;;;;3.63;1.08;;;;;;;10.67;79.39;99578.69;5128000;27;20030;-73
2021/05/22 02:14:42;;;;;;;4.50;0.70;;;;;;;10.57;79.30;99580.41;5134808;27;20022;-73
2021/05/22 02:17:09;;;;;;;7.30;1.05;;;;;;;10.68;78.69;99575.84;5095278;27;20476;-73
2021/05/22 02:19:37;;;;;;;5.03;0.90;;;;;;;10.65;78.27;99573.44;5118580;27;20146;-74
2021/05/22 02:22:10;;;;;;;1.73;0.60;;;;;;;10.74;77.27;99586.09;5126457;27;20019;-73
2021/05/22 02:24:37;;;;;;;8.63;0.90;;;;;;;10.69;77.88;99576.72;5116446;27;20476;-74
2021/05/22 02:27:04;;;;;;;7.85;1.10;;;;;;;10.64;77.89;99579.78;5108964;27;20110;-73
2021/05/22 02:29:32;;;;;;;2.17;0.68;;;;;;;10.60;78.49;99574.81;5124975;27;20069;-73
2021/05/22 02:31:59;;;;;;;6.35;1.90;;;;;;;10.61;78.24;99580.06;5123500;27;20031;-73
2021/05/22 02:34:42;;;;;;;6.90;1.10;;;;;;;10.68;78.69;99572.31;5110538;27;20064;-74
2021/05/22 02:37:08;;;;;;;3.90;1.00;;;;;;;10.69;77.52;99574.03;5108728;27;20047;-73
2021/05/22 02:39:36;;;;;;;5.68;1.35;;;;;;;10.74;77.86;99572.66;5127745;27;20022;-73
2021/05/22 02:42:04;;;;;;;3.45;0.68;;;;;;;10.68;78.56;99581.22;5130243;27;20546;-76
2021/05/22 02:44:31;;;;;;;7.65;1.02;;;;;;;10.72;77.78;99568.41;5117178;27;20058;-73
2021/05/22 02:46:58;;;;;;;6.97;0.90;;;;;;;10.69;78.06;99565.97;5125496;27;20365;-74
2021/05/22 02:49:27;;;;;;;5.88;0.88;;;;;;;10.79;76.98;99565.09;5112968;27;20099;-73
2021/05/22 02:51:56;;;;;;;5.15;0.82;;;;;;;10.68;78.01;99559.75;5123318;27;20031;-74
2021/05/22 02:54:24;;;;;;;7.65;0.90;;;;;;;10.76;77.74;99557.28;5108994;27;20487;-73
2021/05/22 02:56:50;;;;;;;6.95;1.17;;;;;;;10.77;76.84;99548.28;5102841;27;20080;-73
2021/05/22 02:59:17;;;;;;;3.80;0.77;;;;;;;10.76;77.27;99551.94;5126427;27;20027;-74
2021/05/22 03:01:42;;;;;;;4.47;0.82;;;;;;;10.71;78.18;99555.97;5092164;27;20043;-73
2021/05/22 03:04:08;;;;;;;3.65;1.10;;;;;;;10.62;78.18;99551.34;5112789;27;20084;-73
2021/05/22 03:06:34;;;;;;;2.20;0.60;;;;;;;10.67;77.96;99557.22;5111407;27;20054;-74
2021/05/22 03:09:00;;;;;;;10.02;1.40;;;;;;;10.70;77.99;99551.59;5108670;27;20146;-73
2021/05/22 03:11:25;;;;;;;9.48;1.15;;;;;;;10.77;78.08;99559.00;5107397;27;20381;-73
2021/05/22 03:13:52;;;;;;;7.63;1.67;;;;;;;10.61;78.76;99547.00;5126564;27;20020;-73
2021/05/22 03:16:17;;;;;;;13.80;2.22;;;;;;;10.71;78.31;99554.16;5129000;27;20556;-74
2021/05/22 03:18:43;;;;;;;4.88;0.90;;;;;;;10.71;78.18;99553.28;5106384;27;20570;-73
2021/05/22 03:21:09;;;;;;;4.75;1.15;;;;;;;10.79;78.63;99556.19;5121885;27;20031;-73
2021/05/22 03:23:35;;;;;;;5.03;0.90;;;;;;;10.72;78.58;99563.06;5116275;27;20028;-73
2021/05/22 03:26:00;;;;;;;8.30;1.08;;;;;;;10.62;78.79;99559.41;5125098;27;20202;-73
2021/05/22 03:28:26;;;;;;;6.93;0.75;;;;;;;10.75;79.02;99562.78;5119249;27;20042;-74
2021/05/22 03:30:52;;;;;;;8.05;0.90;;;;;;;10.73;79.37;99556.72;5123318;27;20030;-74
2021/05/22 03:33:17;;;;;;;7.97;1.08;;;;;;;10.71;79.11;99564.03;5121876;27;20031;-73
2021/05/22 03:35:43;;;;;;;8.07;1.00;;;;;;;10.66;79.77;99555.50;5125262;27;20020;-73
2021/05/22 03:38:08;;;;;;;7.50;1.42;;;;;;;10.73;79.34;99562.09;5120853;27;20167;-73
2021/05/22 03:40:33;;;;;;;4.55;1.20;;;;;;;10.75;79.79;99552.03;5119593;27;20399;-73
2021/05/22 03:42:59;;;;;;;7.45;0.95;;;;;;;10.76;79.97;99556.44;5106100;27;20126;-73
2021/05/22 03:45:24;;;;;;;11.02;1.38;;;;;;;10.73;79.92;99551.34;5123879;27;20122;-74
2021/05/22 03:47:51;;;;;;;6.72;1.05;;;;;;;10.71;79.54;99561.34;5109077;28;20061;-73
2021/05/22 03:50:16;;;;;;;6.72;1.80;;;;;;;10.81;80.32;99559.59;5127521;27;20615;-73
2021/05/22 03:52:42;;;;;;;9.95;1.10;;;;;;;10.86;79.46;99558.22;5103230;27;20040;-73
2021/05/22 03:55:10;;;;;;;7.97;1.52;;;;;;;10.82;80.03;99545.19;5117055;27;20030;-73
2021/05/22 03:57:35;;;;;;;6.80;1.40;;;;;;;10.87;79.95;99538.44;5100564;27;20034;-73
2021/05/22 04:00:02;;;;;;;3.50;1.27;;;;;;;10.97;79.29;99549.28;5101760;28;20027;-73
2021/05/22 04:02:29;;;;;;;4.85;1.13;;;;;;;10.95;80.48;99557.47;5116428;27;20067;-73
2021/05/22 04:04:55;;;;;;;9.10;1.23;;;;;;;11.01;80.03;99561.47;5098469;28;20073;-73
2021/05/22 04:07:20;;;;;;;8.43;1.10;;;;;;;11.00;80.09;99559.75;5123042;27;20475;-73
2021/05/22 04:09:45;;;;;;;7.82;1.20;;;;;;;11.04;80.53;99561.22;5121802;27;20041;-73
2021/05/22 04:12:11;;;;;;;6.55;1.20;;;;;;;11.01;80.44;99560.59;5123653;27;20089;-72
2021/05/22 04:14:36;;;;;;;7.72;1.13;;;;;;;11.11;80.73;99562.38;5105950;28;20027;-73
2021/05/22 04:17:02;;;;;;;9.10;1.25;;;;;;;11.09;80.61;99553.63;5123570;27;20084;-73
2021/05/22 04:19:28;;;;;;;7.05;1.20;;;;;;;11.11;80.42;99562.38;5107238;27;20035;-73
2021/05/22 04:21:53;;;;;;;11.20;1.38;;;;;;;11.10;81.34;99538.34;5088661;28;20034;-73
2021/05/22 04:24:18;;;;;;;6.05;1.20;;;;;;;11.21;80.53;99552.56;5123222;27;20522;-73
2021/05/22 04:26:44;;;;;;;9.75;1.00;;;;;;;11.20;80.74;99545.50;5108748;28;20504;-72
2021/05/22 04:29:10;;;;;;;7.65;1.02;;;;;;;11.29;80.61;99550.06;5102859;28;20039;-73
2021/05/22 04:31:36;;;;;;;7.68;1.40;;;;;;;11.36;80.76;99561.97;5106868;28;20316;-74
2021/05/22 04:34:01;;;;;;;5.90;1.20;;;;;;;11.26;80.67;99547.66;5122085;27;20092;-72
2021/05/22 04:36:27;;;;;;;4.38;0.90;;;;;;;11.25;80.19;99575.47;5106315;28;20031;-73
2021/05/22 04:38:52;;;;;;;9.70;1.40;;;;;;;11.24;80.88;99563.03;5104030;28;20745;-73
2021/05/22 04:41:18;;;;;;;10.93;1.50;;;;;;;11.33;80.76;99556.03;5126795;27;20506;-73
2021/05/22 04:43:44;;;;;;;10.13;1.42;;;;;;;11.23;80.39;99561.31;5122414;27;20042;-72
2021/05/22 04:46:09;;;;;;;12.68;1.15;;;;;;;11.25;80.55;99570.13;5109005;27;20031;-73
2021/05/22 04:48:35;;;;;;;6.65;1.25;;;;;;;11.29;80.80;99560.78;5131466;27;20674;-73
2021/05/22 04:51:00;;;;;;;8.50;1.42;;;;;;;11.26;81.29;99552.16;5110410;27;20062;-73
2021/05/22 04:53:26;;;;;;;5.80;1.30;;;;;;;11.28;81.24;99548.38;5087614;28;20415;-71
2021/05/22 04:55:52;;;;;;;5.97;1.13;;;;;;;11.32;81.26;99554.31;5122172;27;20491;-73
2021/05/22 04:58:19;;;;;;;5.70;1.40;;;;;;;11.34;80.84;99568.50;5125256;27;20042;-72
2021/05/22 05:00:44;;;;;;;8.25;0.95;;;;;;;11.39;81.09;99571.63;5127673;27;20122;-73
2021/05/22 05:03:09;;;;;;;12.57;1.20;;;;;;;11.32;80.16;99549.81;5125462;27;20123;-73
2021/05/22 05:05:35;;;;;;;6.47;1.40;;;;;;;11.45;79.33;99559.50;5129464;27;20491;-73
2021/05/22 05:08:00;;;;;;;7.63;1.80;;;;;;;11.45;80.03;99538.84;5123987;27;20059;-73
2021/05/22 05:10:26;;;;;;;10.65;1.25;;;;;;;11.48;79.67;99554.69;5093148;27;20039;-72
2021/05/22 05:12:53;;;;;;;10.95;1.35;;;;;;;11.50;79.35;99552.75;5102949;27;20023;-73
2021/05/22 05:15:19;;;;;;;9.95;1.15;;;;;;;11.61;79.42;99555.34;5108551;27;20027;-73
2021/05/22 05:17:44;;;;;;;8.98;1.30;;;;;;;11.58;78.45;99552.09;5107739;27;20035;-72
2021/05/22 05:20:10;;;;;;;6.28;0.88;;;;;;;11.64;79.01;99556.91;5105056;27;20043;-73
2021/05/22 05:22:35;;;;;;;8.57;1.23;;;;;;;11.65;78.90;99556.78;5125090;27;20023;-73
2021/05/22 05:25:01;;;;;;;5.07;1.23;;;;;;;11.72;78.59;99562.50;5124835;27;20070;-73
2021/05/22 05:27:26;;;;;;;11.48;1.52;;;;;;;11.75;78.60;99559.53;5126055;27;20244;-72
2021/05/22 05:29:52;;;;;;;9.02;1.50;;;;;;;11.81;78.16;99556.31;5124762;27;20030;-73
2021/05/22 05:32:17;;;;;;;13.27;1.83;;;;;;;11.82;77.81;99560.72;5109990;27;20035;-72
2021/05/22 05:34:43;;;;;;;17.98;2.15;;;;;;;11.75;77.84;99568.47;5099374;28;20138;-74
2021/05/22 05:37:12;;;;;;;11.77;1.52;;;;;;;11.75;77.65;99567.63;5108511;27;20043;-73
2021/05/22 05:39:38;;;;;;;4.32;0.82;;;;;;;11.77;79.11;99573.72;5102393;27;20588;-73
2021/05/22 05:42:04;;;;;;;8.90;1.50;;;;;;;11.77;78.02;99564.81;5099527;28;20035;-74
2021/05/22 05:44:29;;;;;;;3.78;0.95;;;;;;;11.75;78.49;99573.00;5125311;27;20037;-74
2021/05/22 05:46:55;;;;;;;16.15;1.23;;;;;;;11.78;78.38;99572.75;5133728;27;20061;-73
2021/05/22 05:49:21;;;;;;;10.05;1.10;;;;;;;11.75;78.58;99564.94;5124442;27;20080;-74
2021/05/22 05:51:46;;;;;;;11.00;1.27;;;;;;;11.80;78.99;99578.81;5120859;27;20413;-73
2021/05/22 05:54:12;;;;;;;9.90;1.98;;;;;;;11.79;78.76;99565.53;5123651;27;20023;-73
2021/05/22 05:56:37;;;;;;;3.78;0.82;;;;;;;11.77;79.00;99572.88;5105964;28;20075;-73
2021/05/22 05:59:03;;;;;;;7.43;1.10;;;;;;;11.85;78.91;99581.94;5109605;27;20031;-74
2021/05/22 06:01:30;;;;;;;9.73;1.38;;;;;;;11.73;81.50;99580.28;5119132;27;20031;-73
2021/05/22 06:03:56;;;;;;;8.25;1.90;;;;;;;11.81;83.67;99585.91;5107541;27;20383;-73
2021/05/22 06:06:21;;;;;;;10.45;1.35;;;;;;;11.73;85.56;99586.56;5107366;27;20064;-72
2021/05/22 06:08:47;;;;;;;6.57;0.98;;;;;;;11.53;87.16;99591.94;5124031;27;20479;-73
2021/05/22 06:11:14;;;;;;;4.03;1.10;;;;;;;11.48;88.12;99591.50;5119921;27;20497;-74
2021/05/22 06:13:40;;;;;;;8.45;1.27;;;;;;;11.46;88.25;99582.69;5104300;27;20116;-73
2021/05/22 06:18:35;;;;;;;6.47;1.17;;;;;;;11.52;88.17;99583.03;5126043;27;20034;-74
2021/05/22 06:21:02;;;;;;;5.90;1.13;;;;;;;11.44;87.81;99590.88;5120526;27;20314;-73
2021/05/22 06:23:29;;;;;;;8.23;1.48;;;;;;;11.57;87.89;99596.06;5116431;27;20532;-74
2021/05/22 06:25:55;;;;;;;6.07;1.10;;;;;;;11.64;87.87;99591.84;5119760;27;20059;-71
2021/05/22 06:28:21;;;;;;;8.68;1.42;;;;;;;11.56;86.60;99599.72;5124113;27;20054;-74
2021/05/22 06:30:47;;;;;;;8.52;1.40;;;;;;;11.58;86.95;99595.06;5104082;27;20035;-74
2021/05/22 06:33:13;;;;;;;8.57;1.10;;;;;;;11.60;88.91;99595.81;5106110;27;20599;-74
2021/05/22 06:35:38;;;;;;;6.68;2.22;;;;;;;11.55;87.62;99589.94;5123395;27;20030;-75
2021/05/22 06:38:04;;;;;;;10.32;1.50;;;;;;;11.61;88.02;99602.84;5100797;28;20244;-74
2021/05/22 06:40:29;;;;;;;7.03;1.20;;;;;;;11.60;88.26;99601.19;5100285;28;20023;-73
2021/05/22 06:42:55;;;;;;;5.72;1.77;;;;;;;11.58;90.16;99597.75;5104341;27;20533;-73
2021/05/22 06:45:22;;;;;;;11.05;2.10;;;;;;;11.54;87.66;99607.09;5109821;27;20098;-73
2021/05/22 06:47:48;;;;;;;7.20;1.30;;;;;;;11.62;88.12;99602.75;5102482;27;20053;-73
2021/05/22 06:50:14;;;;;;;12.77;1.63;;;;;;;11.55;86.05;99603.38;5125342;27;20376;-74
2021/05/22 06:52:40;;;;;;;10.68;2.55;;;;;;;11.64;86.87;99608.00;5103512;27;20035;-74
2021/05/22 06:55:06;;;;;;;15.68;3.97;;;;;;;11.65;85.41;99604.31;5107049;27;20391;-74
2021/05/22 06:57:32;;;;;;;5.90;1.10;;;;;;;11.62;84.20;99609.94;5125306;27;20507;-74
2021/05/22 06:59:58;;;;;;;9.65;1.08;;;;;;;11.64;85.34;99608.00;5123022;27;20031;-74
2021/05/22 07:02:23;;;;;;;12.38;1.30;;;;;;;11.59;85.28;99620.97;5131283;27;20033;-74
2021/05/22 07:04:49;;;;;;;5.40;1.10;;;;;;;11.65;84.78;99604.31;5125487;27;20050;-74
2021/05/22 07:07:15;;;;;;;6.35;1.00;;;;;;;11.67;84.99;99613.94;5106884;27;20490;-74
2021/05/22 07:09:40;;;;;;;8.52;1.90;;;;;;;11.68;85.07;99630.91;5099424;27;20030;-74
2021/05/22 07:12:06;;;;;;;8.05;1.45;;;;;;;11.71;86.06;99617.22;5094749;27;20031;-74
2021/05/22 07:14:31;;;;;;;6.80;1.20;;;;;;;11.68;85.96;99625.53;5105836;27;20344;-75
2021/05/22 07:16:59;;;;;;;7.45;1.40;;;;;;;11.74;86.04;99617.84;5090959;27;20525;-75
2021/05/22 07:19:26;;;;;;;9.88;2.35;;;;;;;11.82;84.73;99625.25;5126044;27;20030;-74
2021/05/22 07:21:51;;;;;;;11.50;2.08;;;;;;;11.77;86.29;99630.16;5103978;27;20063;-74
2021/05/22 07:24:18;;;;;;;6.18;1.15;;;;;;;11.83;85.98;99640.41;5124493;27;20469;-74
2021/05/22 07:26:44;;;;;;;7.25;1.15;;;;;;;11.76;87.31;99639.22;5099226;27;20192;-75
2021/05/22 07:29:10;;;;;;;11.38;1.88;;;;;;;11.73;87.43;99651.06;5107743;27;20110;-74
2021/05/22 07:31:39;;;;;;;8.90;0.90;;;;;;;11.67;88.87;99639.97;5118472;27;20034;-74
2021/05/22 07:34:05;;;;;;;9.13;1.50;;;;;;;11.63;90.22;99660.03;5124305;27;20091;-73
2021/05/22 07:36:31;;;;;;;5.10;0.73;;;;;;;11.58;90.87;99647.00;5112017;27;20495;-74
2021/05/22 07:38:56;;;;;;;9.27;1.70;;;;;;;11.57;90.57;99655.19;5125204;27;20043;-74
2021/05/22 07:41:21;;;;;;;8.18;1.13;;;;;;;11.61;91.70;99630.59;5098753;27;20027;-75
2021/05/22 07:43:47;;;;;;;4.97;0.98;;;;;;;11.62;90.34;99656.50;5098350;27;20080;-74
2021/05/22 07:46:12;;;;;;;8.23;1.27;;;;;;;11.61;90.56;99662.00;5098686;27;20498;-74
2021/05/22 07:48:38;;;;;;;3.15;1.17;;;;;;;11.60;90.87;99663.00;5124202;27;20039;-74
2021/05/22 07:51:04;;;;;;;8.77;1.20;;;;;;;11.54;90.66;99663.53;5125517;27;20035;-75
2021/05/22 07:53:29;;;;;;;4.57;0.68;;;;;;;11.48;91.31;99655.97;5122311;27;20027;-75
2021/05/22 07:55:55;;;;;;;11.45;0.98;;;;;;;11.49;91.46;99666.56;5114221;27;20444;-75
2021/05/22 07:58:21;;;;;;;8.30;1.10;;;;;;;11.46;92.89;99668.69;5095843;28;20070;-74
2021/05/22 08:00:46;;;;;;;5.72;0.85;;;;;;;11.41;93.04;99665.53;5125384;27;20468;-75
2021/05/22 08:03:12;;;;;;;8.63;1.23;;;;;;;11.45;94.07;99675.03;5103244;28;20035;-75
2021/05/22 08:05:38;;;;;;;4.30;1.10;;;;;;;11.41;94.89;99670.91;5119550;27;20075;-74
2021/05/22 08:08:05;;;;;;;11.77;1.55;;;;;;;11.42;95.08;99675.31;5120816;27;20579;-73
2021/05/22 08:10:31;;;;;;;12.52;2.83;;;;;;;11.40;96.18;99677.25;5101676;28;20693;-74
2021/05/22 08:12:57;;;;;;;4.10;1.10;;;;;;;11.28;98.75;99671.94;5124110;28;20387;-75
2021/05/22 08:15:23;;;;;;;9.25;1.45;;;;;;;11.28;99.18;99671.94;5114257;27;20026;-74
2021/05/22 08:17:48;;;;;;;8.00;1.58;;;;;;;11.27;99.63;99674.75;5121478;27;20046;-74
2021/05/22 08:20:14;;;;;;;6.78;1.33;;;;;;;11.30;100.00;99675.34;5107724;27;20035;-74
2021/05/22 08:22:40;;;;;;;7.43;1.67;;;;;;;11.27;100.00;99680.97;5106153;27;20023;-74
2021/05/22 08:25:07;;;;;;;4.70;1.15;;;;;;;11.17;100.00;99677.34;5130542;27;20027;-73
2021/05/22 08:27:32;;;;;;;4.00;1.05;;;;;;;11.21;100.00;99684.19;5106729;27;20077;-74
2021/05/22 08:29:58;;;;;;;6.53;1.30;;;;;;;11.16;100.00;99683.72;5105110;27;20031;-74
2021/05/22 08:32:25;;;;;;;6.10;0.93;;;;;;;11.18;100.00;99692.47;5104971;27;20038;-73
2021/05/22 08:34:51;;;;;;;4.70;1.35;;;;;;;11.16;100.00;99694.47;5107250;27;20118;-73
2021/05/22 08:37:20;;;;;;;4.30;1.10;;;;;;;11.12;100.00;99697.50;5094067;28;20119;-73
2021/05/22 08:39:47;;;;;;;5.95;1.20;;;;;;;11.20;100.00;99692.34;5108882;27;20031;-74
2021/05/22 08:42:24;;;;;;;7.18;1.65;;;;;;;11.24;100.00;99691.09;5095908;28;20123;-71
2021/05/22 08:44:50;;;;;;;7.28;1.60;;;;;;;11.25;100.00;99688.31;5130393;27;20498;-74
2021/05/22 08:47:16;;;;;;;6.18;1.05;;;;;;;11.27;100.00;99691.72;5112957;27;20031;-73
2021/05/22 08:49:42;;;;;;;7.68;1.83;;;;;;;11.25;100.00;99698.19;5121002;27;20027;-73
2021/05/22 08:52:14;;;;;;;5.63;1.30;;;;;;;11.14;100.00;99691.03;5106942;27;20031;-73
2021/05/22 08:54:40;;;;;;;9.07;1.63;;;;;;;11.18;100.00;99703.22;5110190;27;20114;-73
2021/05/22 08:57:07;;;;;;;3.55;1.10;;;;;;;11.14;100.00;99709.84;5128495;27;20488;-73
2021/05/22 08:59:37;;;;;;;9.88;1.35;;;;;;;11.14;100.00;99701.78;5087555;28;20414;-73
2021/05/22 09:02:03;;;;;;;8.45;2.85;;;;;;;11.27;100.00;99701.63;5121157;27;20027;-73
2021/05/22 09:04:28;;;;;;;6.47;1.10;;;;;;;11.29;100.00;99705.84;5124804;27;20352;-73
2021/05/22 09:07:03;;;;;;;6.57;1.83;;;;;;;11.28;100.00;99704.19;5124958;27;20476;-73
2021/05/22 09:09:43;;;;;;;4.45;1.50;;;;;;;11.46;100.00;99709.00;5117908;27;20058;-74
2021/05/22 09:12:09;;;;;;;6.80;1.35;;;;;;;11.59;100.00;99712.34;5081852;27;20043;-74
2021/05/22 09:14:51;;;;;;;5.45;1.40;;;;;;;11.69;100.00;99703.38;5105127;27;20031;-75
2021/05/22 09:17:17;;;;;;;9.05;1.95;;;;;;;11.89;98.89;99712.47;5127816;27;20826;-75
2021/05/22 09:19:44;;;;;;;5.45;1.65;;;;;;;12.06;98.05;99703.78;5121960;27;20039;-73
2021/05/22 09:22:12;;;;;;;7.55;1.52;;;;;;;12.14;96.42;99717.44;5125265;27;20031;-75
2021/05/22 09:25:06;;;;;;;10.32;1.73;;;;;;;12.40;96.52;99708.94;5121899;27;20023;-75
2021/05/22 09:27:40;;;;;;;7.38;1.85;;;;;;;12.39;94.65;99729.59;5124441;27;20019;-75
2021/05/22 09:30:09;;;;;;;9.85;1.75;;;;;;;12.33;94.13;99714.00;5127543;27;20690;-75
2021/05/22 09:32:35;;;;;;;9.50;1.52;;;;;;;12.38;94.43;99721.66;5128995;27;20076;-74
2021/05/22 09:35:00;;;;;;;8.77;1.35;;;;;;;12.40;95.38;99719.69;5110767;27;20038;-75
2021/05/22 09:37:26;;;;;;;5.78;0.95;;;;;;;12.49;93.55;99735.88;5120471;27;20039;-75
2021/05/22 09:39:53;;;;;;;6.53;1.15;;;;;;;12.55;94.70;99729.09;5105047;27;20034;-75
2021/05/22 09:42:27;;;;;;;5.68;1.17;;;;;;;12.40;93.87;99741.22;5122352;27;20032;-75
2021/05/22 09:44:53;;;;;;;9.95;1.27;;;;;;;12.51;93.76;99739.28;5123088;27;20063;-75
2021/05/22 09:47:19;;;;;;;3.03;1.08;;;;;;;12.51;93.15;99743.81;5128792;27;20057;-75
2021/05/22 09:49:48;;;;;;;15.77;1.90;;;;;;;12.56;94.64;99742.44;5101702;27;20128;-75
2021/05/22 09:52:17;;;;;;;13.85;2.85;;;;;;;12.58;94.01;99745.00;5124010;27;20115;-76
2021/05/22 09:54:53;;;;;;;6.93;1.35;;;;;;;12.55;95.14;99751.47;5103160;27;20050;-75
2021/05/22 09:57:19;;;;;;;5.40;1.48;;;;;;;12.47;94.32;99753.13;5089871;27;20056;-75
2021/05/22 10:00:08;;;;;;;7.30;1.33;;;;;;;12.41;96.87;99759.06;5121036;27;20439;-75
2021/05/22 10:02:41;;;;;;;6.80;1.88;;;;;;;12.45;96.76;99760.50;5112394;27;20121;-75
2021/05/22 10:05:19;;;;;;;9.38;1.75;;;;;;;12.42;98.37;99766.13;5098300;27;20027;-75
2021/05/22 10:07:46;;;;;;;5.90;1.15;;;;;;;12.45;96.27;99764.06;5096520;27;20031;-75
2021/05/22 10:10:13;;;;;;;7.18;1.33;;;;;;;12.43;96.91;99767.84;5105198;27;20040;-76
2021/05/22 10:12:41;;;;;;;8.20;1.25;;;;;;;12.36;97.40;99766.66;5096764;27;20039;-75
2021/05/22 10:15:08;;;;;;;9.75;1.25;;;;;;;12.47;98.65;99774.66;5101042;27;20087;-75
2021/05/22 10:17:34;;;;;;;8.88;1.70;;;;;;;12.46;97.36;99772.97;5107828;27;20058;-75
2021/05/22 10:19:59;;;;;;;4.97;1.83;;;;;;;12.53;96.21;99774.13;5104475;27;20062;-75
2021/05/22 10:22:25;;;;;;;10.20;1.52;;;;;;;12.51;97.19;99782.34;5109605;27;20312;-74
2021/05/22 10:24:54;;;;;;;7.88;1.90;;;;;;;12.52;96.13;99788.59;5111778;27;20043;-75
2021/05/22 10:27:21;;;;;;;5.15;1.08;;;;;;;12.55;96.92;99773.03;5100829;27;20046;-75
2021/05/22 10:29:48;;;;;;;4.40;1.35;;;;;;;12.77;97.86;99785.47;5114962;27;20035;-75
2021/05/22 10:32:22;;;;;;;6.53;1.35;;;;;;;12.82;96.70;99796.69;5081187;27;20756;-75
2021/05/22 10:34:49;;;;;;;10.25;1.42;;;;;;;12.79;96.94;99799.63;5115791;27;20092;-74
2021/05/22 10:37:36;;;;;;;8.63;1.52;;;;;;;12.75;97.04;99789.25;5121932;27;20045;-75
2021/05/22 10:40:03;;;;;;;8.70;1.50;;;;;;;12.86;97.89;99794.56;5117699;27;20687;-74
2021/05/22 10:42:32;;;;;;;4.60;1.58;;;;;;;12.85;97.83;99796.38;5101716;27;20570;-75
2021/05/22 10:45:19;;;;;;;9.13;1.42;;;;;;;12.92;99.63;99805.63;5099517;27;20031;-75
2021/05/22 10:47:44;;;;;;;7.15;1.98;;;;;;;12.89;97.40;99803.22;5100739;27;20057;-75
2021/05/22 10:50:10;;;;;;;8.73;1.10;;;;;;;12.71;97.25;99814.78;5099936;27;20543;-73
2021/05/22 10:52:36;;;;;;;6.50;1.38;;;;;;;12.64;98.73;99809.06;5081255;27;20035;-75
2021/05/22 10:55:10;;;;;;;8.52;1.17;;;;;;;12.66;98.23;99801.69;5106595;27;20040;-74
2021/05/22 10:57:42;;;;;;;6.90;1.10;;;;;;;12.68;99.74;99815.88;5101638;27;20131;-74
2021/05/22 11:00:13;;;;;;;7.78;1.52;;;;;;;12.74;100.00;99823.41;5080876;28;20072;-74
2021/05/22 11:02:41;;;;;;;7.75;1.63;;;;;;;12.80;99.30;99820.19;5120931;27;20160;-74
2021/05/22 11:05:32;;;;;;;8.55;1.75;;;;;;;12.92;99.95;99837.09;5119830;27;20031;-73
2021/05/22 11:08:04;;;;;;;10.13;1.30;;;;;;;12.96;100.00;99825.09;5102728;27;20575;-74
2021/05/22 11:10:35;;;;;;;7.57;1.23;;;;;;;12.87;100.00;99821.34;5124109;27;20035;-75
2021/05/22 11:13:01;;;;;;;6.00;1.25;;;;;;;12.92;100.00;99829.03;5116478;27;20046;-74
2021/05/22 11:15:56;;;;;;;7.45;1.48;;;;;;;12.98;100.00;99832.03;5123874;27;20023;-74
2021/05/22 11:18:27;;;;;;;12.45;1.73;;;;;;;13.13;99.74;99831.69;5114826;27;20054;-74
2021/05/22 11:21:17;;;;;;;6.32;2.25;;;;;;;13.17;100.00;99822.34;5089083;27;20023;-74
2021/05/22 11:24:00;;;;;;;9.27;1.60;;;;;;;13.21;99.34;99834.53;5106404;27;20104;-74
2021/05/22 11:26:56;;;;;;;11.55;1.88;;;;;;;13.22;99.09;99833.56;5105113;27;20100;-75
2021/05/22 11:29:23;;;;;;;6.15;1.33;;;;;;;13.41;99.93;99844.41;5080664;27;20045;-74
2021/05/22 11:31:49;;;;;;;10.90;1.75;;;;;;;13.48;99.79;99842.88;5082536;27;20030;-74
2021/05/22 11:34:24;;;;;;;12.90;1.45;;;;;;;13.78;98.46;99850.88;5084845;28;20022;-74
2021/05/22 11:37:11;;;;;;;8.77;1.65;;;;;;;13.81;97.14;99859.69;5106839;27;20484;-75